sensor_id;sensor_type;location;lat;lon;timestamp;pressure;altitude;pressure_sealevel;temperature;humidity
13705;BME280;6924;52.122;9.952;2023-07-31T00:01:34;99952.53;;;16.89;99.24
13705;BME280;6924;52.122;9.952;2023-07-31T00:04:00;99951.63;;;16.85;99.69
13705;BME280;6924;52.122;9.952;2023-07-31T00:06:27;99942.59;;;16.83;99.64
13705;BME280;6924;52.122;9.952;2023-07-31T00:08:53;99961.38;;;16.84;99.77
13705;BME280;6924;52.122;9.952;2023-07-31T00:11:20;99954.28;;;16.78;99.58
13705;BME280;6924;52.122;9.952;2023-07-31T00:13:46;99956.69;;;16.76;100.00
13705;BME280;6924;52.122;9.952;2023-07-31T00:16:13;99953.81;;;16.76;100.00
13705;BME280;6924;52.122;9.952;2023-07-31T00:18:41;99948.56;;;16.78;100.00
13705;BME280;6924;52.122;9.952;2023-07-31T00:21:07;99940.94;;;16.82;100.00
13705;BME280;6924;52.122;9.952;2023-07-31T00:23:33;99937.69;;;16.84;100.00
13705;BME280;6924;52.122;9.952;2023-07-31T00:26:00;99943.34;;;16.80;99.44
13705;BME280;6924;52.122;9.952;2023-07-31T00:28:27;99937.97;;;16.79;99.78
13705;BME280;6924;52.122;9.952;2023-07-31T00:30:54;99943.22;;;16.77;100.00
13705;BME280;6924;52.122;9.952;2023-07-31T00:33:20;99935.59;;;16.81;99.89
13705;BME280;6924;52.122;9.952;2023-07-31T00:35:48;99939.16;;;16.78;100.00
13705;BME280;6924;52.122;9.952;2023-07-31T00:38:15;99922.88;;;16.78;99.78
13705;BME280;6924;52.122;9.952;2023-07-31T00:40:41;99925.38;;;16.80;100.00
13705;BME280;6924;52.122;9.952;2023-07-31T00:43:08;99917.88;;;16.75;100.00
13705;BME280;6924;52.122;9.952;2023-07-31T00:45:34;99928.13;;;16.76;100.00
13705;BME280;6924;52.122;9.952;2023-07-31T00:48:01;99917.06;;;16.74;100.00
13705;BME280;6924;52.122;9.952;2023-07-31T00:50:28;99917.53;;;16.77;100.00
13705;BME280;6924;52.122;9.952;2023-07-31T00:52:57;99914.56;;;16.73;100.00
13705;BME280;6924;52.122;9.952;2023-07-31T00:55:24;99919.56;;;16.76;100.00
13705;BME280;6924;52.122;9.952;2023-07-31T00:57:50;99925.38;;;16.80;100.00
13705;BME280;6924;52.122;9.952;2023-07-31T01:00:18;99923.88;;;16.86;100.00
13705;BME280;6924;52.122;9.952;2023-07-31T01:02:44;99918.72;;;16.91;100.00
13705;BME280;6924;52.122;9.952;2023-07-31T01:05:11;99924.44;;;16.91;100.00
13705;BME280;6924;52.122;9.952;2023-07-31T01:07:44;99912.69;;;16.97;100.00
13705;BME280;6924;52.122;9.952;2023-07-31T01:10:16;99913.16;;;16.99;100.00
13705;BME280;6924;52.122;9.952;2023-07-31T01:12:44;99909.16;;;17.03;100.00
13705;BME280;6924;52.122;9.952;2023-07-31T01:15:11;99911.72;;;17.08;100.00
13705;BME280;6924;52.122;9.952;2023-07-31T01:17:40;99902.78;;;17.10;100.00
13705;BME280;6924;52.122;9.952;2023-07-31T01:20:11;99902.69;;;17.06;100.00
13705;BME280;6924;52.122;9.952;2023-07-31T01:22:48;99910.75;;;17.01;100.00
13705;BME280;6924;52.122;9.952;2023-07-31T01:28:11;99905.84;;;17.01;100.00
13705;BME280;6924;52.122;9.952;2023-07-31T01:30:43;99897.28;;;17.01;100.00
13705;BME280;6924;52.122;9.952;2023-07-31T01:33:10;99896.47;;;17.01;100.00
13705;BME280;6924;52.122;9.952;2023-07-31T01:35:37;99891.56;;;17.01;100.00
13705;BME280;6924;52.122;9.952;2023-07-31T01:38:05;99887.53;;;17.02;100.00
13705;BME280;6924;52.122;9.952;2023-07-31T01:40:31;99880.09;;;16.98;100.00
13705;BME280;6924;52.122;9.952;2023-07-31T01:42:58;99881.38;;;17.00;100.00
13705;BME280;6924;52.122;9.952;2023-07-31T01:45:25;99877.22;;;16.98;100.00
13705;BME280;6924;52.122;9.952;2023-07-31T01:47:52;99876.00;;;16.99;100.00
13705;BME280;6924;52.122;9.952;2023-07-31T01:50:18;99867.00;;;16.97;100.00
13705;BME280;6924;52.122;9.952;2023-07-31T01:52:45;99868.22;;;16.96;100.00
13705;BME280;6924;52.122;9.952;2023-07-31T01:55:11;99862.03;;;16.93;100.00
13705;BME280;6924;52.122;9.952;2023-07-31T01:57:38;99861.19;;;16.93;100.00
13705;BME280;6924;52.122;9.952;2023-07-31T02:00:06;99857.50;;;16.92;100.00
13705;BME280;6924;52.122;9.952;2023-07-31T02:02:34;99855.88;;;16.91;100.00
13705;BME280;6924;52.122;9.952;2023-07-31T02:05:00;99848.94;;;16.92;100.00
13705;BME280;6924;52.122;9.952;2023-07-31T02:07:27;99844.91;;;16.93;100.00
13705;BME280;6924;52.122;9.952;2023-07-31T02:09:54;99842.03;;;16.93;100.00
13705;BME280;6924;52.122;9.952;2023-07-31T02:12:20;99838.34;;;16.93;100.00
13705;BME280;6924;52.122;9.952;2023-07-31T02:14:46;99838.72;;;16.91;100.00
13705;BME280;6924;52.122;9.952;2023-07-31T02:17:13;99838.28;;;16.89;100.00
13705;BME280;6924;52.122;9.952;2023-07-31T02:19:41;99839.00;;;16.86;100.00
13705;BME280;6924;52.122;9.952;2023-07-31T02:22:07;99840.69;;;16.87;100.00
13705;BME280;6924;52.122;9.952;2023-07-31T02:24:34;99835.78;;;16.88;100.00
13705;BME280;6924;52.122;9.952;2023-07-31T02:27:00;99830.91;;;16.88;100.00
13705;BME280;6924;52.122;9.952;2023-07-31T02:29:27;99825.19;;;16.88;100.00
13705;BME280;6924;52.122;9.952;2023-07-31T02:31:53;99821.97;;;16.90;100.00
13705;BME280;6924;52.122;9.952;2023-07-31T02:34:20;99819.41;;;16.85;100.00
13705;BME280;6924;52.122;9.952;2023-07-31T02:36:47;99814.84;;;16.80;100.00
13705;BME280;6924;52.122;9.952;2023-07-31T02:39:14;99825.84;;;16.82;100.00
13705;BME280;6924;52.122;9.952;2023-07-31T02:41:40;99813.63;;;16.81;100.00
13705;BME280;6924;52.122;9.952;2023-07-31T02:44:07;99816.00;;;16.79;100.00
13705;BME280;6924;52.122;9.952;2023-07-31T02:46:33;99818.97;;;16.83;100.00
13705;BME280;6924;52.122;9.952;2023-07-31T02:49:00;99808.81;;;16.85;100.00
13705;BME280;6924;52.122;9.952;2023-07-31T02:51:26;99803.00;;;16.82;100.00
13705;BME280;6924;52.122;9.952;2023-07-31T02:53:54;99809.19;;;16.84;100.00
13705;BME280;6924;52.122;9.952;2023-07-31T02:56:21;99811.66;;;16.85;100.00
13705;BME280;6924;52.122;9.952;2023-07-31T02:58:47;99808.00;;;16.85;100.00
13705;BME280;6924;52.122;9.952;2023-07-31T03:01:13;99806.25;;;16.80;100.00
13705;BME280;6924;52.122;9.952;2023-07-31T03:03:41;99811.13;;;16.80;100.00
13705;BME280;6924;52.122;9.952;2023-07-31T03:06:07;99808.28;;;16.80;100.00
13705;BME280;6924;52.122;9.952;2023-07-31T03:08:34;99807.41;;;16.79;100.00
13705;BME280;6924;52.122;9.952;2023-07-31T03:11:02;99807.41;;;16.79;100.00
13705;BME280;6924;52.122;9.952;2023-07-31T03:13:28;99809.38;;;16.75;100.00
13705;BME280;6924;52.122;9.952;2023-07-31T03:15:55;99816.28;;;16.74;100.00
13705;BME280;6924;52.122;9.952;2023-07-31T03:18:21;99815.03;;;16.71;100.00
13705;BME280;6924;52.122;9.952;2023-07-31T03:20:48;99817.47;;;16.73;100.00
13705;BME280;6924;52.122;9.952;2023-07-31T03:23:14;99816.97;;;16.67;100.00
13705;BME280;6924;52.122;9.952;2023-07-31T03:25:55;99818.69;;;16.72;100.00
13705;BME280;6924;52.122;9.952;2023-07-31T03:28:23;99816.28;;;16.74;100.00
13705;BME280;6924;52.122;9.952;2023-07-31T03:30:49;99820.66;;;16.68;100.00
13705;BME280;6924;52.122;9.952;2023-07-31T03:33:16;99815.31;;;16.66;100.00
13705;BME280;6924;52.122;9.952;2023-07-31T03:35:42;99810.81;;;16.65;100.00
13705;BME280;6924;52.122;9.952;2023-07-31T03:38:09;99814.03;;;16.64;100.00
13705;BME280;6924;52.122;9.952;2023-07-31T03:40:35;99813.13;;;16.60;100.00
13705;BME280;6924;52.122;9.952;2023-07-31T03:43:02;99821.91;;;16.51;100.00
13705;BME280;6924;52.122;9.952;2023-07-31T03:45:30;99822.75;;;16.51;100.00
13705;BME280;6924;52.122;9.952;2023-07-31T03:47:56;99822.09;;;16.42;100.00
13705;BME280;6924;52.122;9.952;2023-07-31T03:50:23;99819.84;;;16.32;100.00
13705;BME280;6924;52.122;9.952;2023-07-31T03:52:50;99829.13;;;16.29;100.00
13705;BME280;6924;52.122;9.952;2023-07-31T03:55:16;99829.53;;;16.27;100.00
13705;BME280;6924;52.122;9.952;2023-07-31T03:57:43;99826.56;;;16.24;100.00
13705;BME280;6924;52.122;9.952;2023-07-31T04:00:10;99828.31;;;16.28;100.00
13705;BME280;6924;52.122;9.952;2023-07-31T04:02:38;99825.41;;;16.25;100.00
13705;BME280;6924;52.122;9.952;2023-07-31T04:05:05;99820.97;;;16.27;100.00
13705;BME280;6924;52.122;9.952;2023-07-31T04:07:32;99823.72;;;16.24;100.00
13705;BME280;6924;52.122;9.952;2023-07-31T04:09:59;99827.50;;;16.28;100.00
13705;BME280;6924;52.122;9.952;2023-07-31T04:12:26;99818.94;;;16.28;100.00
13705;BME280;6924;52.122;9.952;2023-07-31T04:14:52;99823.72;;;16.24;100.00
13705;BME280;6924;52.122;9.952;2023-07-31T04:17:19;99813.97;;;16.25;100.00
13705;BME280;6924;52.122;9.952;2023-07-31T04:19:47;99818.94;;;16.28;100.00
13705;BME280;6924;52.122;9.952;2023-07-31T04:22:13;99810.00;;;16.29;100.00
13705;BME280;6924;52.122;9.952;2023-07-31T04:24:40;99809.56;;;16.27;100.00
13705;BME280;6924;52.122;9.952;2023-07-31T04:27:06;99804.13;;;16.22;100.00
13705;BME280;6924;52.122;9.952;2023-07-31T04:29:33;99803.28;;;16.22;100.00
13705;BME280;6924;52.122;9.952;2023-07-31T04:32:00;99798.88;;;16.24;100.00
13705;BME280;6924;52.122;9.952;2023-07-31T04:34:26;99807.44;;;16.24;100.00
13705;BME280;6924;52.122;9.952;2023-07-31T04:36:54;99794.38;;;16.23;100.00
13705;BME280;6924;52.122;9.952;2023-07-31T04:39:21;99801.25;;;16.22;100.00
13705;BME280;6924;52.122;9.952;2023-07-31T04:41:47;99793.56;;;16.23;100.00
13705;BME280;6924;52.122;9.952;2023-07-31T04:44:14;99804.56;;;16.24;100.00
13705;BME280;6924;52.122;9.952;2023-07-31T04:46:40;99804.56;;;16.24;100.00
13705;BME280;6924;52.122;9.952;2023-07-31T04:49:07;99802.47;;;16.21;100.00
13705;BME280;6924;52.122;9.952;2023-07-31T04:51:33;99785.19;;;16.14;100.00
13705;BME280;6924;52.122;9.952;2023-07-31T04:54:01;99794.28;;;16.20;100.00
13705;BME280;6924;52.122;9.952;2023-07-31T04:56:27;99780.66;;;16.13;100.00
13705;BME280;6924;52.122;9.952;2023-07-31T04:58:54;99786.84;;;16.15;100.00
13705;BME280;6924;52.122;9.952;2023-07-31T05:01:21;99773.31;;;16.12;100.00
13705;BME280;6924;52.122;9.952;2023-07-31T05:03:47;99778.94;;;16.08;100.00
13705;BME280;6924;52.122;9.952;2023-07-31T05:06:14;99775.91;;;16.01;100.00
13705;BME280;6924;52.122;9.952;2023-07-31T05:08:41;99784.47;;;16.01;100.00
13705;BME280;6924;52.122;9.952;2023-07-31T05:11:08;99783.19;;;15.99;100.00
13705;BME280;6924;52.122;9.952;2023-07-31T05:13:35;99789.72;;;15.99;100.00
13705;BME280;6924;52.122;9.952;2023-07-31T05:16:01;99783.25;;;16.02;100.00
13705;BME280;6924;52.122;9.952;2023-07-31T05:18:28;99778.31;;;15.99;100.00
13705;BME280;6924;52.122;9.952;2023-07-31T05:20:54;99785.13;;;15.95;100.00
13705;BME280;6924;52.122;9.952;2023-07-31T05:23:21;99778.88;;;15.89;100.00
13705;BME280;6924;52.122;9.952;2023-07-31T05:25:47;99779.69;;;15.89;100.00
13705;BME280;6924;52.122;9.952;2023-07-31T05:28:15;99767.84;;;15.87;100.00
13705;BME280;6924;52.122;9.952;2023-07-31T05:30:42;99771.53;;;15.88;100.00
13705;BME280;6924;52.122;9.952;2023-07-31T05:33:08;99767.59;;;15.77;100.00
13705;BME280;6924;52.122;9.952;2023-07-31T05:35:35;99784.41;;;15.82;100.00
13705;BME280;6924;52.122;9.952;2023-07-31T05:38:01;99777.78;;;15.78;100.00
13705;BME280;6924;52.122;9.952;2023-07-31T05:40:28;99783.19;;;15.83;100.00
13705;BME280;6924;52.122;9.952;2023-07-31T05:42:54;99777.13;;;15.84;100.00
13705;BME280;6924;52.122;9.952;2023-07-31T05:45:22;99786.50;;;15.85;100.00
13705;BME280;6924;52.122;9.952;2023-07-31T05:47:48;99780.63;;;15.94;100.00
13705;BME280;6924;52.122;9.952;2023-07-31T05:50:15;99779.03;;;15.96;100.00
13705;BME280;6924;52.122;9.952;2023-07-31T05:52:41;99767.00;;;16.03;100.00
13705;BME280;6924;52.122;9.952;2023-07-31T05:55:08;99770.13;;;15.98;100.00
13705;BME280;6924;52.122;9.952;2023-07-31T05:57:34;99762.13;;;16.03;100.00
13705;BME280;6924;52.122;9.952;2023-07-31T06:00:01;99780.06;;;16.04;100.00
13705;BME280;6924;52.122;9.952;2023-07-31T06:02:29;99769.41;;;16.01;100.00
13705;BME280;6924;52.122;9.952;2023-07-31T06:04:58;99765.44;;;16.05;100.00
13705;BME280;6924;52.122;9.952;2023-07-31T06:07:25;99761.41;;;15.90;100.00
13705;BME280;6924;52.122;9.952;2023-07-31T06:09:52;99761.94;;;15.96;100.00
13705;BME280;6924;52.122;9.952;2023-07-31T06:12:20;99766.91;;;15.99;100.00
13705;BME280;6924;52.122;9.952;2023-07-31T06:14:46;99764.56;;;16.05;100.00
13705;BME280;6924;52.122;9.952;2023-07-31T06:17:13;99760.09;;;16.04;100.00
13705;BME280;6924;52.122;9.952;2023-07-31T06:19:40;99771.59;;;16.07;100.00
13705;BME280;6924;52.122;9.952;2023-07-31T06:22:07;99763.31;;;16.02;100.00
13705;BME280;6924;52.122;9.952;2023-07-31T06:24:33;99769.75;;;15.99;100.00
13705;BME280;6924;52.122;9.952;2023-07-31T06:27:00;99775.56;;;16.03;100.00
13705;BME280;6924;52.122;9.952;2023-07-31T06:29:29;99778.41;;;16.03;100.00
13705;BME280;6924;52.122;9.952;2023-07-31T06:31:55;99776.28;;;16.00;100.00
13705;BME280;6924;52.122;9.952;2023-07-31T06:34:22;99778.84;;;16.05;100.00
13705;BME280;6924;52.122;9.952;2023-07-31T06:36:50;99769.00;;;16.02;100.00
13705;BME280;6924;52.122;9.952;2023-07-31T06:39:16;99767.06;;;16.06;100.00
13705;BME280;6924;52.122;9.952;2023-07-31T06:41:43;99761.53;;;16.14;100.00
13705;BME280;6924;52.122;9.952;2023-07-31T06:44:10;99775.78;;;16.14;100.00
13705;BME280;6924;52.122;9.952;2023-07-31T06:46:37;99767.06;;;16.06;100.00
13705;BME280;6924;52.122;9.952;2023-07-31T06:49:04;99764.22;;;16.06;100.00
13705;BME280;6924;52.122;9.952;2023-07-31T06:51:30;99758.88;;;16.05;100.00
13705;BME280;6924;52.122;9.952;2023-07-31T06:53:58;99769.47;;;16.04;100.00
13705;BME280;6924;52.122;9.952;2023-07-31T06:56:25;99752.91;;;16.10;100.00
13705;BME280;6924;52.122;9.952;2023-07-31T06:58:52;99759.44;;;16.10;100.00
13705;BME280;6924;52.122;9.952;2023-07-31T07:01:19;99752.16;;;16.13;100.00
13705;BME280;6924;52.122;9.952;2023-07-31T07:03:45;99753.88;;;16.18;100.00
13705;BME280;6924;52.122;9.952;2023-07-31T07:06:12;99752.97;;;16.14;100.00
13705;BME280;6924;52.122;9.952;2023-07-31T07:08:38;99740.38;;;16.15;100.00
13705;BME280;6924;52.122;9.952;2023-07-31T07:11:06;99742.47;;;16.18;100.00
13705;BME280;6924;52.122;9.952;2023-07-31T07:13:32;99743.75;;;16.20;100.00
13705;BME280;6924;52.122;9.952;2023-07-31T07:15:59;99744.97;;;16.19;100.00
13705;BME280;6924;52.122;9.952;2023-07-31T07:18:25;99735.47;;;16.15;100.00
13705;BME280;6924;52.122;9.952;2023-07-31T07:20:53;99730.69;;;16.19;100.00
13705;BME280;6924;52.122;9.952;2023-07-31T07:23:22;99721.69;;;16.17;100.00
13705;BME280;6924;52.122;9.952;2023-07-31T07:25:48;99730.03;;;16.26;100.00
13705;BME280;6924;52.122;9.952;2023-07-31T07:28:17;99726.72;;;16.24;100.00
13705;BME280;6924;52.122;9.952;2023-07-31T07:30:44;99717.47;;;16.30;100.00
13705;BME280;6924;52.122;9.952;2023-07-31T07:33:10;99723.28;;;16.34;100.00
13705;BME280;6924;52.122;9.952;2023-07-31T07:35:37;99732.19;;;16.32;100.00
13705;BME280;6924;52.122;9.952;2023-07-31T07:38:04;99724.84;;;16.31;100.00
13705;BME280;6924;52.122;9.952;2023-07-31T07:40:30;99727.31;;;16.33;100.00
13705;BME280;6924;52.122;9.952;2023-07-31T07:42:57;99722.59;;;16.41;100.00
13705;BME280;6924;52.122;9.952;2023-07-31T07:45:26;99737.69;;;16.41;100.00
13705;BME280;6924;52.122;9.952;2023-07-31T07:47:53;99744.59;;;16.40;100.00
13705;BME280;6924;52.122;9.952;2023-07-31T07:50:19;99736.34;;;16.35;100.00
13705;BME280;6924;52.122;9.952;2023-07-31T07:52:46;99752.72;;;16.38;100.00
13705;BME280;6924;52.122;9.952;2023-07-31T07:55:12;99764.66;;;16.44;100.00
13705;BME280;6924;52.122;9.952;2023-07-31T07:57:39;99762.16;;;16.42;100.00
13705;BME280;6924;52.122;9.952;2023-07-31T08:00:06;99762.09;;;16.39;100.00
13705;BME280;6924;52.122;9.952;2023-07-31T08:02:37;99771.84;;;16.38;100.00
13705;BME280;6924;52.122;9.952;2023-07-31T08:05:04;99766.78;;;16.47;100.00
13705;BME280;6924;52.122;9.952;2023-07-31T08:07:30;99766.31;;;16.45;100.00
13705;BME280;6924;52.122;9.952;2023-07-31T08:09:57;99771.81;;;16.53;100.00
13705;BME280;6924;52.122;9.952;2023-07-31T08:12:23;99773.81;;;16.53;100.00
13705;BME280;6924;52.122;9.952;2023-07-31T08:14:50;99773.81;;;16.53;100.00
13705;BME280;6924;52.122;9.952;2023-07-31T08:17:16;99768.97;;;16.53;100.00
13705;BME280;6924;52.122;9.952;2023-07-31T08:19:44;99761.22;;;16.54;100.00
13705;BME280;6924;52.122;9.952;2023-07-31T08:22:11;99754.69;;;16.53;100.00
13705;BME280;6924;52.122;9.952;2023-07-31T08:24:37;99754.75;;;16.57;100.00
13705;BME280;6924;52.122;9.952;2023-07-31T08:27:06;99747.00;;;16.58;100.00
13705;BME280;6924;52.122;9.952;2023-07-31T08:29:32;99755.09;;;16.56;100.00
13705;BME280;6924;52.122;9.952;2023-07-31T08:31:59;99753.03;;;16.52;100.00
13705;BME280;6924;52.122;9.952;2023-07-31T08:34:25;99763.41;;;16.61;100.00
13705;BME280;6924;52.122;9.952;2023-07-31T08:36:53;99753.84;;;16.53;100.00
13705;BME280;6924;52.122;9.952;2023-07-31T08:39:19;99763.75;;;16.59;100.00
13705;BME280;6924;52.122;9.952;2023-07-31T08:41:47;99768.34;;;16.64;100.00
13705;BME280;6924;52.122;9.952;2023-07-31T08:44:13;99766.41;;;16.68;100.00
13705;BME280;6924;52.122;9.952;2023-07-31T08:46:40;99763.69;;;16.75;100.00
13705;BME280;6924;52.122;9.952;2023-07-31T08:49:07;99762.41;;;16.72;100.00
13705;BME280;6924;52.122;9.952;2023-07-31T08:51:34;99760.31;;;16.69;100.00
13705;BME280;6924;52.122;9.952;2023-07-31T08:54:02;99757.47;;;16.69;100.00
13705;BME280;6924;52.122;9.952;2023-07-31T08:56:30;99757.06;;;16.71;100.00
13705;BME280;6924;52.122;9.952;2023-07-31T08:58:58;99753.47;;;16.74;100.00
13705;BME280;6924;52.122;9.952;2023-07-31T09:01:26;99755.50;;;16.73;100.00
13705;BME280;6924;52.122;9.952;2023-07-31T09:03:54;99747.75;;;16.74;100.00
13705;BME280;6924;52.122;9.952;2023-07-31T09:06:23;99734.75;;;16.77;100.00
13705;BME280;6924;52.122;9.952;2023-07-31T09:08:51;99728.69;;;16.78;100.00
13705;BME280;6924;52.122;9.952;2023-07-31T09:11:21;99723.78;;;16.79;100.00
13705;BME280;6924;52.122;9.952;2023-07-31T09:13:49;99721.28;;;16.77;100.00
13705;BME280;6924;52.122;9.952;2023-07-31T09:16:16;99725.09;;;16.81;100.00
13705;BME280;6924;52.122;9.952;2023-07-31T09:18:53;99723.44;;;16.80;100.00
13705;BME280;6924;52.122;9.952;2023-07-31T09:21:20;99720.59;;;16.80;100.00
13705;BME280;6924;52.122;9.952;2023-07-31T09:23:47;99725.16;;;16.85;100.00
13705;BME280;6924;52.122;9.952;2023-07-31T09:26:29;99721.91;;;16.86;100.00
13705;BME280;6924;52.122;9.952;2023-07-31T09:28:56;99707.72;;;16.90;100.00
13705;BME280;6924;52.122;9.952;2023-07-31T09:31:32;99706.13;;;16.92;100.00
13705;BME280;6924;52.122;9.952;2023-07-31T09:33:58;99707.41;;;16.95;100.00
13705;BME280;6924;52.122;9.952;2023-07-31T09:36:29;99712.81;;;17.00;100.00
13705;BME280;6924;52.122;9.952;2023-07-31T09:38:55;99708.00;;;17.04;100.00
13705;BME280;6924;52.122;9.952;2023-07-31T09:41:23;99703.91;;;17.05;100.00
13705;BME280;6924;52.122;9.952;2023-07-31T09:43:53;99691.09;;;16.96;100.00
13705;BME280;6924;52.122;9.952;2023-07-31T09:46:20;99691.34;;;16.87;100.00
13705;BME280;6924;52.122;9.952;2023-07-31T09:48:47;99686.81;;;16.86;100.00
13705;BME280;6924;52.122;9.952;2023-07-31T09:51:14;99685.69;;;16.90;100.00
13705;BME280;6924;52.122;9.952;2023-07-31T09:53:40;99686.91;;;16.89;100.00
13705;BME280;6924;52.122;9.952;2023-07-31T09:56:07;99679.47;;;16.85;100.00
13705;BME280;6924;52.122;9.952;2023-07-31T09:58:35;99671.09;;;16.96;100.00
13705;BME280;6924;52.122;9.952;2023-07-31T10:01:02;99674.41;;;16.98;100.00
13705;BME280;6924;52.122;9.952;2023-07-31T10:03:29;99680.69;;;17.07;100.00
13705;BME280;6924;52.122;9.952;2023-07-31T10:05:59;99677.00;;;17.06;100.00
13705;BME280;6924;52.122;9.952;2023-07-31T10:08:27;99684.03;;;17.12;100.00
13705;BME280;6924;52.122;9.952;2023-07-31T10:10:58;99679.66;;;17.19;100.00
13705;BME280;6924;52.122;9.952;2023-07-31T10:13:27;99693.19;;;17.22;100.00
13705;BME280;6924;52.122;9.952;2023-07-31T10:15:58;99680.13;;;17.21;100.00
13705;BME280;6924;52.122;9.952;2023-07-31T10:18:26;99679.78;;;17.26;100.00
13705;BME280;6924;52.122;9.952;2023-07-31T10:20:54;99681.50;;;17.30;100.00
13705;BME280;6924;52.122;9.952;2023-07-31T10:23:22;99677.00;;;17.29;100.00
13705;BME280;6924;52.122;9.952;2023-07-31T10:25:49;99678.25;;;17.32;100.00
13705;BME280;6924;52.122;9.952;2023-07-31T10:28:19;99673.44;;;17.36;100.00
13705;BME280;6924;52.122;9.952;2023-07-31T10:30:47;99671.84;;;17.39;100.00
13705;BME280;6924;52.122;9.952;2023-07-31T10:33:15;99658.78;;;17.38;100.00
13705;BME280;6924;52.122;9.952;2023-07-31T10:35:42;99668.78;;;17.51;100.00
13705;BME280;6924;52.122;9.952;2023-07-31T10:38:10;99645.97;;;17.54;100.00
13705;BME280;6924;52.122;9.952;2023-07-31T10:40:37;99653.50;;;17.66;100.00
13705;BME280;6924;52.122;9.952;2023-07-31T10:43:05;99653.72;;;17.81;100.00
13705;BME280;6924;52.122;9.952;2023-07-31T10:45:35;99652.19;;;17.87;100.00
13705;BME280;6924;52.122;9.952;2023-07-31T10:48:03;99647.44;;;17.98;100.00
13705;BME280;6924;52.122;9.952;2023-07-31T10:50:32;99660.16;;;18.01;100.00
13705;BME280;6924;52.122;9.952;2023-07-31T10:52:59;99648.84;;;18.11;100.00
13705;BME280;6924;52.122;9.952;2023-07-31T10:55:30;99648.94;;;18.18;100.00
13705;BME280;6924;52.122;9.952;2023-07-31T10:57:58;99648.63;;;18.24;100.00
13705;BME280;6924;52.122;9.952;2023-07-31T11:00:30;99654.94;;;18.40;100.00
13705;BME280;6924;52.122;9.952;2023-07-31T11:03:02;99633.28;;;18.43;100.00
13705;BME280;6924;52.122;9.952;2023-07-31T11:05:47;99643.63;;;18.51;100.00
13705;BME280;6924;52.122;9.952;2023-07-31T11:08:16;99635.09;;;18.58;100.00
13705;BME280;6924;52.122;9.952;2023-07-31T11:10:43;99650.78;;;18.68;100.00
13705;BME280;6924;52.122;9.952;2023-07-31T11:13:10;99635.59;;;18.67;100.00
13705;BME280;6924;52.122;9.952;2023-07-31T11:15:37;99633.75;;;18.78;100.00
13705;BME280;6924;52.122;9.952;2023-07-31T11:18:04;99630.75;;;18.71;100.00
13705;BME280;6924;52.122;9.952;2023-07-31T11:20:33;99614.75;;;18.67;100.00
13705;BME280;6924;52.122;9.952;2023-07-31T11:23:03;99620.53;;;18.70;100.00
13705;BME280;6924;52.122;9.952;2023-07-31T11:25:30;99623.31;;;18.63;100.00
13705;BME280;6924;52.122;9.952;2023-07-31T11:28:01;99614.75;;;18.67;100.00
13705;BME280;6924;52.122;9.952;2023-07-31T11:30:28;99614.81;;;18.74;100.00
13705;BME280;6924;52.122;9.952;2023-07-31T11:32:55;99614.94;;;18.81;100.00
13705;BME280;6924;52.122;9.952;2023-07-31T11:35:21;99619.06;;;18.84;100.00
13705;BME280;6924;52.122;9.952;2023-07-31T11:37:48;99615.88;;;18.92;100.00
13705;BME280;6924;52.122;9.952;2023-07-31T11:40:16;99621.22;;;18.97;100.00
13705;BME280;6924;52.122;9.952;2023-07-31T11:42:43;99622.47;;;19.00;100.00
13705;BME280;6924;52.122;9.952;2023-07-31T11:45:10;99615.16;;;19.06;100.00
13705;BME280;6924;52.122;9.952;2023-07-31T11:47:37;99619.31;;;19.12;100.00
13705;BME280;6924;52.122;9.952;2023-07-31T11:50:05;99623.00;;;19.09;100.00
13705;BME280;6924;52.122;9.952;2023-07-31T11:52:36;99613.53;;;19.09;100.00
13705;BME280;6924;52.122;9.952;2023-07-31T11:55:05;99604.13;;;19.08;100.00
13705;BME280;6924;52.122;9.952;2023-07-31T11:57:33;99602.13;;;19.12;100.00
13705;BME280;6924;52.122;9.952;2023-07-31T12:00:00;99608.72;;;19.20;100.00
13705;BME280;6924;52.122;9.952;2023-07-31T12:02:28;99601.72;;;19.14;100.00
13705;BME280;6924;52.122;9.952;2023-07-31T12:04:55;99597.28;;;19.24;100.00
13705;BME280;6924;52.122;9.952;2023-07-31T12:07:21;99592.84;;;19.30;100.00
13705;BME280;6924;52.122;9.952;2023-07-31T12:09:53;99583.91;;;19.38;100.00
13705;BME280;6924;52.122;9.952;2023-07-31T12:12:20;99591.34;;;19.50;100.00
13705;BME280;6924;52.122;9.952;2023-07-31T12:14:49;99584.44;;;19.58;100.00
13705;BME280;6924;52.122;9.952;2023-07-31T12:17:17;99598.41;;;19.64;100.00
13705;BME280;6924;52.122;9.952;2023-07-31T12:19:45;99591.47;;;19.68;99.03
13705;BME280;6924;52.122;9.952;2023-07-31T12:22:12;99590.28;;;19.73;99.19
13705;BME280;6924;52.122;9.952;2023-07-31T12:24:39;99588.97;;;19.63;98.69
13705;BME280;6924;52.122;9.952;2023-07-31T12:27:09;99589.78;;;19.64;99.30
13705;BME280;6924;52.122;9.952;2023-07-31T12:29:36;99594.75;;;19.67;100.00
13705;BME280;6924;52.122;9.952;2023-07-31T12:32:04;99578.81;;;19.73;99.64
13705;BME280;6924;52.122;9.952;2023-07-31T12:34:31;99587.41;;;19.69;98.54
13705;BME280;6924;52.122;9.952;2023-07-31T12:36:58;99588.97;;;19.63;99.37
13705;BME280;6924;52.122;9.952;2023-07-31T12:39:24;99581.56;;;19.58;98.51
13705;BME280;6924;52.122;9.952;2023-07-31T12:41:51;99575.41;;;19.56;98.39
13705;BME280;6924;52.122;9.952;2023-07-31T12:44:18;99580.25;;;19.49;99.29
13705;BME280;6924;52.122;9.952;2023-07-31T12:46:44;99585.97;;;19.41;100.00
13705;BME280;6924;52.122;9.952;2023-07-31T12:49:12;99586.78;;;19.42;100.00
13705;BME280;6924;52.122;9.952;2023-07-31T12:51:38;99593.34;;;19.46;100.00
13705;BME280;6924;52.122;9.952;2023-07-31T12:54:05;99588.88;;;19.49;100.00
13705;BME280;6924;52.122;9.952;2023-07-31T12:56:32;99581.13;;;19.53;100.00
13705;BME280;6924;52.122;9.952;2023-07-31T12:58:59;99582.75;;;19.50;100.00
13705;BME280;6924;52.122;9.952;2023-07-31T13:01:25;99582.78;;;19.54;100.00
13705;BME280;6924;52.122;9.952;2023-07-31T13:03:52;99580.28;;;19.52;100.00